sensor_id;sensor_type;location;lat;lon;timestamp;P1;durP1;ratioP1;P2;durP2;ratioP2
51718;SDS011;37795;53.236;5.704;2023-11-25T00:00:28;15.18;;;5.00;;
51718;SDS011;37795;53.236;5.704;2023-11-25T00:02:54;14.80;;;5.33;;
51718;SDS011;37795;53.236;5.704;2023-11-25T00:05:20;12.30;;;5.43;;
51718;SDS011;37795;53.236;5.704;2023-11-25T00:07:46;10.53;;;4.53;;
51718;SDS011;37795;53.236;5.704;2023-11-25T00:10:12;11.40;;;4.72;;
51718;SDS011;37795;53.236;5.704;2023-11-25T00:12:38;9.07;;;4.47;;
51718;SDS011;37795;53.236;5.704;2023-11-25T00:15:04;8.45;;;4.13;;
51718;SDS011;37795;53.236;5.704;2023-11-25T00:17:30;6.25;;;2.55;;
51718;SDS011;37795;53.236;5.704;2023-11-25T00:19:59;12.48;;;4.03;;
51718;SDS011;37795;53.236;5.704;2023-11-25T00:22:25;10.05;;;3.38;;
51718;SDS011;37795;53.236;5.704;2023-11-25T00:24:52;9.80;;;3.35;;
51718;SDS011;37795;53.236;5.704;2023-11-25T00:27:17;9.57;;;3.85;;
51718;SDS011;37795;53.236;5.704;2023-11-25T00:29:44;7.80;;;3.63;;
51718;SDS011;37795;53.236;5.704;2023-11-25T00:32:10;11.07;;;3.53;;
51718;SDS011;37795;53.236;5.704;2023-11-25T00:34:36;6.38;;;2.70;;
51718;SDS011;37795;53.236;5.704;2023-11-25T00:37:04;5.10;;;2.83;;
51718;SDS011;37795;53.236;5.704;2023-11-25T00:39:31;6.60;;;2.72;;
51718;SDS011;37795;53.236;5.704;2023-11-25T00:41:56;7.57;;;3.30;;
51718;SDS011;37795;53.236;5.704;2023-11-25T00:44:23;11.53;;;4.13;;
51718;SDS011;37795;53.236;5.704;2023-11-25T00:46:49;13.43;;;3.80;;
51718;SDS011;37795;53.236;5.704;2023-11-25T00:49:14;10.10;;;4.27;;
51718;SDS011;37795;53.236;5.704;2023-11-25T00:51:40;10.65;;;4.22;;
51718;SDS011;37795;53.236;5.704;2023-11-25T00:54:07;6.55;;;3.38;;
51718;SDS011;37795;53.236;5.704;2023-11-25T00:56:34;4.88;;;2.60;;
51718;SDS011;37795;53.236;5.704;2023-11-25T00:58:59;11.50;;;3.80;;
51718;SDS011;37795;53.236;5.704;2023-11-25T01:01:25;7.93;;;2.90;;
51718;SDS011;37795;53.236;5.704;2023-11-25T01:03:51;9.13;;;3.63;;
51718;SDS011;37795;53.236;5.704;2023-11-25T01:06:17;12.32;;;4.35;;
51718;SDS011;37795;53.236;5.704;2023-11-25T01:08:43;9.70;;;4.28;;
51718;SDS011;37795;53.236;5.704;2023-11-25T01:11:09;8.93;;;3.63;;
51718;SDS011;37795;53.236;5.704;2023-11-25T01:13:34;13.53;;;4.63;;
51718;SDS011;37795;53.236;5.704;2023-11-25T01:16:00;16.10;;;5.27;;
51718;SDS011;37795;53.236;5.704;2023-11-25T01:18:26;11.90;;;4.80;;
51718;SDS011;37795;53.236;5.704;2023-11-25T01:20:52;15.77;;;5.20;;
51718;SDS011;37795;53.236;5.704;2023-11-25T01:23:20;11.43;;;5.53;;
51718;SDS011;37795;53.236;5.704;2023-11-25T01:25:50;13.27;;;4.70;;
51718;SDS011;37795;53.236;5.704;2023-11-25T01:28:16;24.35;;;6.00;;
51718;SDS011;37795;53.236;5.704;2023-11-25T01:30:42;13.30;;;4.18;;
51718;SDS011;37795;53.236;5.704;2023-11-25T01:33:07;15.93;;;5.27;;
51718;SDS011;37795;53.236;5.704;2023-11-25T01:35:34;8.70;;;3.92;;
51718;SDS011;37795;53.236;5.704;2023-11-25T01:38:00;10.50;;;3.47;;
51718;SDS011;37795;53.236;5.704;2023-11-25T01:40:26;11.25;;;4.38;;
51718;SDS011;37795;53.236;5.704;2023-11-25T01:42:58;10.10;;;2.83;;
51718;SDS011;37795;53.236;5.704;2023-11-25T01:45:24;12.10;;;4.97;;
51718;SDS011;37795;53.236;5.704;2023-11-25T01:47:53;13.02;;;4.07;;
51718;SDS011;37795;53.236;5.704;2023-11-25T01:50:21;11.65;;;3.72;;
51718;SDS011;37795;53.236;5.704;2023-11-25T01:52:48;12.48;;;4.22;;
51718;SDS011;37795;53.236;5.704;2023-11-25T01:55:18;18.40;;;5.25;;
51718;SDS011;37795;53.236;5.704;2023-11-25T01:57:44;10.95;;;4.32;;
51718;SDS011;37795;53.236;5.704;2023-11-25T02:00:11;13.33;;;5.57;;
51718;SDS011;37795;53.236;5.704;2023-11-25T02:02:39;11.77;;;4.30;;
51718;SDS011;37795;53.236;5.704;2023-11-25T02:05:07;10.10;;;4.18;;
51718;SDS011;37795;53.236;5.704;2023-11-25T02:07:34;12.83;;;4.93;;
51718;SDS011;37795;53.236;5.704;2023-11-25T02:10:00;13.90;;;4.90;;
51718;SDS011;37795;53.236;5.704;2023-11-25T02:12:25;14.27;;;5.03;;
51718;SDS011;37795;53.236;5.704;2023-11-25T02:14:51;10.37;;;3.60;;
51718;SDS011;37795;53.236;5.704;2023-11-25T02:17:18;14.30;;;3.47;;
51718;SDS011;37795;53.236;5.704;2023-11-25T02:19:46;7.88;;;3.72;;
51718;SDS011;37795;53.236;5.704;2023-11-25T02:22:13;4.53;;;1.88;;
51718;SDS011;37795;53.236;5.704;2023-11-25T02:24:40;2.70;;;1.67;;
51718;SDS011;37795;53.236;5.704;2023-11-25T02:27:07;7.70;;;3.25;;
51718;SDS011;37795;53.236;5.704;2023-11-25T02:29:32;7.35;;;2.72;;
51718;SDS011;37795;53.236;5.704;2023-11-25T02:32:00;6.22;;;2.38;;
51718;SDS011;37795;53.236;5.704;2023-11-25T02:34:29;8.25;;;2.70;;
51718;SDS011;37795;53.236;5.704;2023-11-25T02:36:55;4.72;;;2.10;;
51718;SDS011;37795;53.236;5.704;2023-11-25T02:39:23;4.60;;;1.63;;
51718;SDS011;37795;53.236;5.704;2023-11-25T02:41:49;9.67;;;2.53;;
51718;SDS011;37795;53.236;5.704;2023-11-25T02:44:16;8.50;;;2.13;;
51718;SDS011;37795;53.236;5.704;2023-11-25T02:46:43;4.75;;;2.30;;
51718;SDS011;37795;53.236;5.704;2023-11-25T02:49:09;5.45;;;1.98;;
51718;SDS011;37795;53.236;5.704;2023-11-25T02:51:36;5.20;;;1.80;;
51718;SDS011;37795;53.236;5.704;2023-11-25T02:54:02;9.23;;;2.90;;
51718;SDS011;37795;53.236;5.704;2023-11-25T02:56:31;3.92;;;2.10;;
51718;SDS011;37795;53.236;5.704;2023-11-25T02:58:57;2.47;;;1.38;;
51718;SDS011;37795;53.236;5.704;2023-11-25T03:01:23;2.88;;;1.40;;
51718;SDS011;37795;53.236;5.704;2023-11-25T03:03:54;1.65;;;1.00;;
51718;SDS011;37795;53.236;5.704;2023-11-25T03:06:24;2.67;;;1.30;;
51718;SDS011;37795;53.236;5.704;2023-11-25T03:08:51;4.72;;;1.70;;
51718;SDS011;37795;53.236;5.704;2023-11-25T03:11:21;2.33;;;1.10;;
51718;SDS011;37795;53.236;5.704;2023-11-25T03:13:47;5.32;;;2.13;;
51718;SDS011;37795;53.236;5.704;2023-11-25T03:16:13;11.90;;;3.42;;
51718;SDS011;37795;53.236;5.704;2023-11-25T03:18:39;8.05;;;3.47;;
51718;SDS011;37795;53.236;5.704;2023-11-25T03:21:05;8.38;;;2.63;;
51718;SDS011;37795;53.236;5.704;2023-11-25T03:23:33;11.65;;;3.80;;
51718;SDS011;37795;53.236;5.704;2023-11-25T03:26:01;12.75;;;3.45;;
51718;SDS011;37795;53.236;5.704;2023-11-25T03:28:30;14.95;;;3.85;;
51718;SDS011;37795;53.236;5.704;2023-11-25T03:31:03;9.73;;;3.83;;
51718;SDS011;37795;53.236;5.704;2023-11-25T03:33:29;10.13;;;4.00;;
51718;SDS011;37795;53.236;5.704;2023-11-25T03:35:55;11.85;;;4.18;;
51718;SDS011;37795;53.236;5.704;2023-11-25T03:38:21;9.30;;;3.90;;
51718;SDS011;37795;53.236;5.704;2023-11-25T03:40:48;9.93;;;3.67;;
51718;SDS011;37795;53.236;5.704;2023-11-25T03:43:15;15.75;;;4.53;;
51718;SDS011;37795;53.236;5.704;2023-11-25T03:45:41;11.50;;;4.23;;
51718;SDS011;37795;53.236;5.704;2023-11-25T03:48:06;10.83;;;3.70;;
51718;SDS011;37795;53.236;5.704;2023-11-25T03:50:33;7.03;;;2.60;;
51718;SDS011;37795;53.236;5.704;2023-11-25T03:52:59;9.93;;;3.55;;
51718;SDS011;37795;53.236;5.704;2023-11-25T03:55:26;12.88;;;5.03;;
51718;SDS011;37795;53.236;5.704;2023-11-25T03:57:52;13.82;;;3.28;;
51718;SDS011;37795;53.236;5.704;2023-11-25T04:00:17;7.95;;;3.45;;
51718;SDS011;37795;53.236;5.704;2023-11-25T04:02:44;9.10;;;3.25;;
51718;SDS011;37795;53.236;5.704;2023-11-25T04:05:11;9.18;;;4.22;;
51718;SDS011;37795;53.236;5.704;2023-11-25T04:07:38;13.00;;;5.03;;
51718;SDS011;37795;53.236;5.704;2023-11-25T04:10:05;6.63;;;4.00;;
51718;SDS011;37795;53.236;5.704;2023-11-25T04:12:38;10.68;;;4.63;;
51718;SDS011;37795;53.236;5.704;2023-11-25T04:15:08;9.68;;;3.60;;
51718;SDS011;37795;53.236;5.704;2023-11-25T04:17:35;10.48;;;3.65;;
51718;SDS011;37795;53.236;5.704;2023-11-25T04:20:02;10.00;;;3.53;;
51718;SDS011;37795;53.236;5.704;2023-11-25T04:22:33;11.32;;;3.90;;
51718;SDS011;37795;53.236;5.704;2023-11-25T04:24:59;11.20;;;3.60;;
51718;SDS011;37795;53.236;5.704;2023-11-25T04:27:25;14.07;;;3.40;;
51718;SDS011;37795;53.236;5.704;2023-11-25T04:29:51;8.88;;;3.33;;
51718;SDS011;37795;53.236;5.704;2023-11-25T04:32:17;3.53;;;1.80;;
51718;SDS011;37795;53.236;5.704;2023-11-25T04:34:44;1.65;;;0.80;;
51718;SDS011;37795;53.236;5.704;2023-11-25T04:37:10;1.33;;;0.85;;
51718;SDS011;37795;53.236;5.704;2023-11-25T04:39:35;3.28;;;1.58;;
51718;SDS011;37795;53.236;5.704;2023-11-25T04:42:01;6.43;;;2.20;;
51718;SDS011;37795;53.236;5.704;2023-11-25T04:44:28;9.10;;;3.38;;
51718;SDS011;37795;53.236;5.704;2023-11-25T04:46:54;9.73;;;2.43;;
51718;SDS011;37795;53.236;5.704;2023-11-25T04:49:19;6.22;;;3.10;;
51718;SDS011;37795;53.236;5.704;2023-11-25T04:51:47;5.97;;;2.30;;
51718;SDS011;37795;53.236;5.704;2023-11-25T04:54:15;6.05;;;2.00;;
51718;SDS011;37795;53.236;5.704;2023-11-25T04:56:40;5.77;;;2.57;;
51718;SDS011;37795;53.236;5.704;2023-11-25T04:59:06;7.45;;;2.00;;
51718;SDS011;37795;53.236;5.704;2023-11-25T05:01:32;3.15;;;1.63;;
51718;SDS011;37795;53.236;5.704;2023-11-25T05:03:57;5.77;;;2.27;;
51718;SDS011;37795;53.236;5.704;2023-11-25T05:06:23;6.65;;;2.70;;
51718;SDS011;37795;53.236;5.704;2023-11-25T05:08:49;6.23;;;2.77;;
51718;SDS011;37795;53.236;5.704;2023-11-25T05:11:15;4.82;;;2.45;;
51718;SDS011;37795;53.236;5.704;2023-11-25T05:13:41;3.47;;;2.47;;
51718;SDS011;37795;53.236;5.704;2023-11-25T05:16:07;11.38;;;4.07;;
51718;SDS011;37795;53.236;5.704;2023-11-25T05:18:33;8.27;;;3.22;;
51718;SDS011;37795;53.236;5.704;2023-11-25T05:20:59;4.22;;;1.88;;
51718;SDS011;37795;53.236;5.704;2023-11-25T05:23:27;1.92;;;1.30;;
51718;SDS011;37795;53.236;5.704;2023-11-25T05:25:52;5.07;;;1.50;;
51718;SDS011;37795;53.236;5.704;2023-11-25T05:28:19;4.32;;;1.48;;
51718;SDS011;37795;53.236;5.704;2023-11-25T05:30:47;4.35;;;2.35;;
51718;SDS011;37795;53.236;5.704;2023-11-25T05:33:12;5.33;;;1.70;;
51718;SDS011;37795;53.236;5.704;2023-11-25T05:35:38;4.70;;;2.17;;
51718;SDS011;37795;53.236;5.704;2023-11-25T05:38:04;10.53;;;3.47;;
51718;SDS011;37795;53.236;5.704;2023-11-25T05:40:29;8.00;;;3.40;;
51718;SDS011;37795;53.236;5.704;2023-11-25T05:42:55;9.25;;;3.42;;
51718;SDS011;37795;53.236;5.704;2023-11-25T05:45:23;10.77;;;3.10;;
51718;SDS011;37795;53.236;5.704;2023-11-25T05:47:52;7.57;;;3.28;;
51718;SDS011;37795;53.236;5.704;2023-11-25T05:50:18;5.60;;;2.47;;
51718;SDS011;37795;53.236;5.704;2023-11-25T05:52:45;5.95;;;2.90;;
51718;SDS011;37795;53.236;5.704;2023-11-25T05:55:11;8.32;;;3.05;;
51718;SDS011;37795;53.236;5.704;2023-11-25T05:57:37;11.43;;;4.07;;
51718;SDS011;37795;53.236;5.704;2023-11-25T06:00:03;8.18;;;2.70;;
51718;SDS011;37795;53.236;5.704;2023-11-25T06:02:29;9.02;;;2.95;;
51718;SDS011;37795;53.236;5.704;2023-11-25T06:04:55;5.20;;;2.53;;
51718;SDS011;37795;53.236;5.704;2023-11-25T06:07:21;6.25;;;3.08;;
51718;SDS011;37795;53.236;5.704;2023-11-25T06:09:47;9.85;;;2.72;;
51718;SDS011;37795;53.236;5.704;2023-11-25T06:12:12;4.80;;;2.17;;
51718;SDS011;37795;53.236;5.704;2023-11-25T06:14:38;7.93;;;2.60;;
51718;SDS011;37795;53.236;5.704;2023-11-25T06:17:04;2.92;;;1.45;;
51718;SDS011;37795;53.236;5.704;2023-11-25T06:19:32;5.25;;;1.67;;
51718;SDS011;37795;53.236;5.704;2023-11-25T06:21:58;9.05;;;2.63;;
51718;SDS011;37795;53.236;5.704;2023-11-25T06:24:24;7.80;;;2.47;;
51718;SDS011;37795;53.236;5.704;2023-11-25T06:26:50;5.13;;;1.70;;
51718;SDS011;37795;53.236;5.704;2023-11-25T06:29:16;5.60;;;2.25;;
51718;SDS011;37795;53.236;5.704;2023-11-25T06:31:41;7.07;;;3.00;;
51718;SDS011;37795;53.236;5.704;2023-11-25T06:34:10;7.25;;;2.67;;
51718;SDS011;37795;53.236;5.704;2023-11-25T06:36:36;7.72;;;2.30;;
51718;SDS011;37795;53.236;5.704;2023-11-25T06:39:01;7.33;;;3.53;;
51718;SDS011;37795;53.236;5.704;2023-11-25T06:41:29;6.13;;;2.92;;
51718;SDS011;37795;53.236;5.704;2023-11-25T06:43:55;12.57;;;4.00;;
51718;SDS011;37795;53.236;5.704;2023-11-25T06:52:57;9.70;;;4.28;;
51718;SDS011;37795;53.236;5.704;2023-11-25T06:55:23;11.47;;;4.07;;
51718;SDS011;37795;53.236;5.704;2023-11-25T06:57:49;9.40;;;3.65;;
51718;SDS011;37795;53.236;5.704;2023-11-25T07:00:15;16.92;;;4.65;;
51718;SDS011;37795;53.236;5.704;2023-11-25T07:02:42;11.35;;;4.82;;
51718;SDS011;37795;53.236;5.704;2023-11-25T07:05:08;9.63;;;3.90;;
51718;SDS011;37795;53.236;5.704;2023-11-25T07:07:34;11.27;;;4.10;;
51718;SDS011;37795;53.236;5.704;2023-11-25T07:10:00;12.25;;;3.70;;
51718;SDS011;37795;53.236;5.704;2023-11-25T07:12:26;6.07;;;2.00;;
51718;SDS011;37795;53.236;5.704;2023-11-25T07:14:52;3.40;;;2.70;;
51718;SDS011;37795;53.236;5.704;2023-11-25T07:17:18;6.78;;;2.70;;
51718;SDS011;37795;53.236;5.704;2023-11-25T07:19:43;4.95;;;2.50;;
51718;SDS011;37795;53.236;5.704;2023-11-25T07:22:10;7.53;;;3.40;;
51718;SDS011;37795;53.236;5.704;2023-11-25T07:24:36;7.03;;;3.40;;
51718;SDS011;37795;53.236;5.704;2023-11-25T07:27:05;18.30;;;5.80;;
51718;SDS011;37795;53.236;5.704;2023-11-25T07:29:32;5.70;;;2.75;;
51718;SDS011;37795;53.236;5.704;2023-11-25T07:32:01;7.72;;;3.03;;
51718;SDS011;37795;53.236;5.704;2023-11-25T07:34:27;10.23;;;2.57;;
51718;SDS011;37795;53.236;5.704;2023-11-25T07:37:01;6.22;;;2.50;;
51718;SDS011;37795;53.236;5.704;2023-11-25T07:39:27;11.23;;;5.18;;
51718;SDS011;37795;53.236;5.704;2023-11-25T07:41:54;10.77;;;4.07;;
51718;SDS011;37795;53.236;5.704;2023-11-25T07:44:25;16.20;;;4.97;;
51718;SDS011;37795;53.236;5.704;2023-11-25T07:46:52;14.45;;;5.60;;
51718;SDS011;37795;53.236;5.704;2023-11-25T07:49:18;16.30;;;6.32;;
51718;SDS011;37795;53.236;5.704;2023-11-25T07:51:45;11.63;;;4.00;;
51718;SDS011;37795;53.236;5.704;2023-11-25T07:54:13;9.05;;;2.97;;
51718;SDS011;37795;53.236;5.704;2023-11-25T07:56:39;6.63;;;3.22;;
51718;SDS011;37795;53.236;5.704;2023-11-25T07:59:05;7.72;;;3.30;;
51718;SDS011;37795;53.236;5.704;2023-11-25T08:01:32;11.73;;;4.25;;
51718;SDS011;37795;53.236;5.704;2023-11-25T08:03:58;7.68;;;3.05;;
51718;SDS011;37795;53.236;5.704;2023-11-25T08:06:25;5.68;;;2.28;;
51718;SDS011;37795;53.236;5.704;2023-11-25T08:08:54;8.45;;;2.88;;
51718;SDS011;37795;53.236;5.704;2023-11-25T08:11:23;11.15;;;4.93;;
51718;SDS011;37795;53.236;5.704;2023-11-25T08:13:50;10.75;;;4.07;;
51718;SDS011;37795;53.236;5.704;2023-11-25T08:16:16;12.60;;;4.35;;
51718;SDS011;37795;53.236;5.704;2023-11-25T08:18:46;15.00;;;4.10;;
51718;SDS011;37795;53.236;5.704;2023-11-25T08:21:13;8.40;;;3.92;;
51718;SDS011;37795;53.236;5.704;2023-11-25T08:23:42;11.32;;;2.67;;
51718;SDS011;37795;53.236;5.704;2023-11-25T08:26:21;4.53;;;2.08;;
51718;SDS011;37795;53.236;5.704;2023-11-25T08:28:48;6.53;;;1.75;;
51718;SDS011;37795;53.236;5.704;2023-11-25T08:31:14;3.50;;;0.90;;
51718;SDS011;37795;53.236;5.704;2023-11-25T08:33:40;4.00;;;1.43;;
51718;SDS011;37795;53.236;5.704;2023-11-25T08:36:07;5.20;;;2.30;;
51718;SDS011;37795;53.236;5.704;2023-11-25T08:38:34;5.70;;;1.60;;
51718;SDS011;37795;53.236;5.704;2023-11-25T08:41:00;4.88;;;2.20;;
51718;SDS011;37795;53.236;5.704;2023-11-25T08:43:26;15.77;;;5.00;;
51718;SDS011;37795;53.236;5.704;2023-11-25T08:45:54;7.20;;;3.75;;
51718;SDS011;37795;53.236;5.704;2023-11-25T08:48:20;13.52;;;4.32;;
51718;SDS011;37795;53.236;5.704;2023-11-25T08:50:46;19.88;;;5.07;;
51718;SDS011;37795;53.236;5.704;2023-11-25T08:53:12;12.25;;;4.43;;
51718;SDS011;37795;53.236;5.704;2023-11-25T08:55:39;17.75;;;4.82;;
51718;SDS011;37795;53.236;5.704;2023-11-25T08:58:05;11.48;;;4.05;;
51718;SDS011;37795;53.236;5.704;2023-11-25T09:00:32;12.98;;;5.38;;
51718;SDS011;37795;53.236;5.704;2023-11-25T09:02:58;17.63;;;5.85;;
51718;SDS011;37795;53.236;5.704;2023-11-25T09:05:25;14.55;;;5.65;;
51718;SDS011;37795;53.236;5.704;2023-11-25T09:07:54;10.25;;;4.45;;
51718;SDS011;37795;53.236;5.704;2023-11-25T09:10:20;16.52;;;4.82;;
51718;SDS011;37795;53.236;5.704;2023-11-25T09:12:48;16.80;;;5.55;;
51718;SDS011;37795;53.236;5.704;2023-11-25T09:15:17;13.82;;;5.20;;
51718;SDS011;37795;53.236;5.704;2023-11-25T09:17:46;8.73;;;3.95;;
51718;SDS011;37795;53.236;5.704;2023-11-25T09:20:13;9.68;;;4.03;;
51718;SDS011;37795;53.236;5.704;2023-11-25T09:22:41;12.40;;;5.25;;
51718;SDS011;37795;53.236;5.704;2023-11-25T09:25:08;21.05;;;6.32;;
51718;SDS011;37795;53.236;5.704;2023-11-25T09:27:46;21.27;;;6.20;;
51718;SDS011;37795;53.236;5.704;2023-11-25T09:30:13;18.30;;;4.82;;
51718;SDS011;37795;53.236;5.704;2023-11-25T09:32:42;22.33;;;6.90;;
51718;SDS011;37795;53.236;5.704;2023-11-25T09:35:11;19.47;;;4.87;;
51718;SDS011;37795;53.236;5.704;2023-11-25T09:37:38;17.30;;;6.20;;
51718;SDS011;37795;53.236;5.704;2023-11-25T09:40:04;9.50;;;4.70;;
51718;SDS011;37795;53.236;5.704;2023-11-25T09:42:32;5.88;;;2.83;;
51718;SDS011;37795;53.236;5.704;2023-11-25T09:45:01;15.60;;;4.93;;
51718;SDS011;37795;53.236;5.704;2023-11-25T09:47:28;14.93;;;4.23;;
51718;SDS011;37795;53.236;5.704;2023-11-25T09:49:54;9.77;;;3.83;;
51718;SDS011;37795;53.236;5.704;2023-11-25T09:52:20;13.45;;;3.85;;
51718;SDS011;37795;53.236;5.704;2023-11-25T09:54:56;12.95;;;5.40;;
51718;SDS011;37795;53.236;5.704;2023-11-25T09:57:24;19.08;;;5.60;;
51718;SDS011;37795;53.236;5.704;2023-11-25T09:59:57;21.48;;;6.90;;
51718;SDS011;37795;53.236;5.704;2023-11-25T10:02:28;16.17;;;7.35;;
51718;SDS011;37795;53.236;5.704;2023-11-25T10:04:55;14.80;;;5.93;;
51718;SDS011;37795;53.236;5.704;2023-11-25T10:07:23;14.40;;;4.70;;
51718;SDS011;37795;53.236;5.704;2023-11-25T10:09:48;10.57;;;3.50;;
51718;SDS011;37795;53.236;5.704;2023-11-25T10:12:16;15.95;;;5.32;;
51718;SDS011;37795;53.236;5.704;2023-11-25T10:14:43;13.68;;;3.75;;
51718;SDS011;37795;53.236;5.704;2023-11-25T10:17:19;13.02;;;4.90;;
51718;SDS011;37795;53.236;5.704;2023-11-25T10:19:46;12.80;;;5.07;;
51718;SDS011;37795;53.236;5.704;2023-11-25T10:22:13;9.75;;;4.82;;
51718;SDS011;37795;53.236;5.704;2023-11-25T10:24:47;14.93;;;5.47;;
51718;SDS011;37795;53.236;5.704;2023-11-25T10:27:18;14.48;;;5.47;;
51718;SDS011;37795;53.236;5.704;2023-11-25T10:29:47;9.32;;;3.88;;
51718;SDS011;37795;53.236;5.704;2023-11-25T10:32:14;14.50;;;4.70;;
51718;SDS011;37795;53.236;5.704;2023-11-25T10:34:40;7.37;;;3.60;;
51718;SDS011;37795;53.236;5.704;2023-11-25T10:37:06;10.90;;;4.35;;
51718;SDS011;37795;53.236;5.704;2023-11-25T10:39:34;13.82;;;4.65;;
51718;SDS011;37795;53.236;5.704;2023-11-25T10:42:04;13.33;;;4.90;;
51718;SDS011;37795;53.236;5.704;2023-11-25T10:44:35;12.73;;;3.75;;
51718;SDS011;37795;53.236;5.704;2023-11-25T10:52:58;10.45;;;3.88;;
51718;SDS011;37795;53.236;5.704;2023-11-25T10:55:27;9.15;;;2.90;;
51718;SDS011;37795;53.236;5.704;2023-11-25T10:57:54;12.00;;;4.03;;
51718;SDS011;37795;53.236;5.704;2023-11-25T11:00:22;7.97;;;3.30;;
51718;SDS011;37795;53.236;5.704;2023-11-25T11:02:48;9.73;;;4.72;;
51718;SDS011;37795;53.236;5.704;2023-11-25T11:05:36;6.97;;;3.58;;
51718;SDS011;37795;53.236;5.704;2023-11-25T11:08:14;12.63;;;4.30;;
51718;SDS011;37795;53.236;5.704;2023-11-25T11:10:58;17.27;;;4.47;;
51718;SDS011;37795;53.236;5.704;2023-11-25T11:13:31;15.40;;;4.20;;
51718;SDS011;37795;53.236;5.704;2023-11-25T11:16:01;11.32;;;3.80;;
51718;SDS011;37795;53.236;5.704;2023-11-25T11:18:31;7.10;;;3.00;;
51718;SDS011;37795;53.236;5.704;2023-11-25T11:21:01;15.32;;;5.22;;
51718;SDS011;37795;53.236;5.704;2023-11-25T11:23:30;15.52;;;5.80;;
51718;SDS011;37795;53.236;5.704;2023-11-25T11:34:32;11.13;;;5.03;;
51718;SDS011;37795;53.236;5.704;2023-11-25T11:37:00;12.50;;;4.38;;
51718;SDS011;37795;53.236;5.704;2023-11-25T11:39:30;11.73;;;4.05;;
51718;SDS011;37795;53.236;5.704;2023-11-25T11:42:15;11.40;;;4.20;;
51718;SDS011;37795;53.236;5.704;2023-11-25T11:45:00;13.52;;;4.03;;
51718;SDS011;37795;53.236;5.704;2023-11-25T11:47:38;13.60;;;4.90;;
51718;SDS011;37795;53.236;5.704;2023-11-25T11:50:06;16.58;;;5.72;;
51718;SDS011;37795;53.236;5.704;2023-11-25T11:52:45;10.43;;;4.35;;
51718;SDS011;37795;53.236;5.704;2023-11-25T11:58:15;13.60;;;4.73;;
51718;SDS011;37795;53.236;5.704;2023-11-25T12:03:31;15.27;;;4.97;;
51718;SDS011;37795;53.236;5.704;2023-11-25T12:06:01;14.18;;;5.97;;
51718;SDS011;37795;53.236;5.704;2023-11-25T12:08:28;17.55;;;5.43;;
51718;SDS011;37795;53.236;5.704;2023-11-25T12:10:55;13.63;;;5.72;;
51718;SDS011;37795;53.236;5.704;2023-11-25T12:13:32;16.42;;;4.80;;
51718;SDS011;37795;53.236;5.704;2023-11-25T12:16:01;10.82;;;3.58;;
51718;SDS011;37795;53.236;5.704;2023-11-25T12:18:32;14.23;;;3.88;;
51718;SDS011;37795;53.236;5.704;2023-11-25T12:20:59;7.95;;;2.83;;
51718;SDS011;37795;53.236;5.704;2023-11-25T12:23:34;3.95;;;2.42;;
51718;SDS011;37795;53.236;5.704;2023-11-25T12:26:00;3.87;;;1.80;;
51718;SDS011;37795;53.236;5.704;2023-11-25T12:28:27;6.05;;;2.90;;
51718;SDS011;37795;53.236;5.704;2023-11-25T12:30:53;6.20;;;2.93;;
51718;SDS011;37795;53.236;5.704;2023-11-25T12:33:19;12.55;;;4.40;;
51718;SDS011;37795;53.236;5.704;2023-11-25T12:35:45;9.40;;;3.20;;
51718;SDS011;37795;53.236;5.704;2023-11-25T12:38:12;6.90;;;3.35;;
51718;SDS011;37795;53.236;5.704;2023-11-25T12:40:38;13.40;;;4.28;;
51718;SDS011;37795;53.236;5.704;2023-11-25T12:43:08;9.20;;;3.80;;
51718;SDS011;37795;53.236;5.704;2023-11-25T12:45:44;17.48;;;4.32;;
51718;SDS011;37795;53.236;5.704;2023-11-25T12:48:13;8.48;;;3.25;;
51718;SDS011;37795;53.236;5.704;2023-11-25T12:50:57;8.23;;;3.33;;
51718;SDS011;37795;53.236;5.704;2023-11-25T12:53:32;10.48;;;3.03;;
51718;SDS011;37795;53.236;5.704;2023-11-25T12:55:58;16.80;;;3.85;;
51718;SDS011;37795;53.236;5.704;2023-11-25T12:58:25;8.65;;;2.63;;
51718;SDS011;37795;53.236;5.704;2023-11-25T13:00:51;3.65;;;1.40;;
51718;SDS011;37795;53.236;5.704;2023-11-25T13:03:25;7.45;;;1.65;;
51718;SDS011;37795;53.236;5.704;2023-11-25T13:06:00;4.53;;;1.80;;
51718;SDS011;37795;53.236;5.704;2023-11-25T13:08:28;5.22;;;2.30;;
51718;SDS011;37795;53.236;5.704;2023-11-25T13:10:57;4.50;;;2.28;;
51718;SDS011;37795;53.236;5.704;2023-11-25T13:13:25;10.70;;;2.95;;
51718;SDS011;37795;53.236;5.704;2023-11-25T13:15:55;12.65;;;3.20;;
51718;SDS011;37795;53.236;5.704;2023-11-25T13:18:21;9.88;;;3.63;;
51718;SDS011;37795;53.236;5.704;2023-11-25T13:20:51;12.53;;;3.80;;
51718;SDS011;37795;53.236;5.704;2023-11-25T13:23:18;11.13;;;3.20;;
51718;SDS011;37795;53.236;5.704;2023-11-25T13:25:48;7.20;;;3.08;;
51718;SDS011;37795;53.236;5.704;2023-11-25T13:28:15;15.60;;;4.53;;
51718;SDS011;37795;53.236;5.704;2023-11-25T13:30:41;18.75;;;6.22;;
51718;SDS011;37795;53.236;5.704;2023-11-25T13:33:07;13.45;;;4.00;;
51718;SDS011;37795;53.236;5.704;2023-11-25T13:35:34;21.17;;;5.63;;
51718;SDS011;37795;53.236;5.704;2023-11-25T13:38:02;13.13;;;4.03;;
51718;SDS011;37795;53.236;5.704;2023-11-25T13:40:28;8.15;;;2.63;;
51718;SDS011;37795;53.236;5.704;2023-11-25T13:43:03;9.68;;;3.10;;
51718;SDS011;37795;53.236;5.704;2023-11-25T13:45:34;7.22;;;2.70;;
51718;SDS011;37795;53.236;5.704;2023-11-25T13:48:00;5.65;;;2.20;;
51718;SDS011;37795;53.236;5.704;2023-11-25T13:50:33;7.20;;;1.90;;
51718;SDS011;37795;53.236;5.704;2023-11-25T13:52:59;4.53;;;2.28;;
51718;SDS011;37795;53.236;5.704;2023-11-25T13:55:32;4.82;;;1.60;;
51718;SDS011;37795;53.236;5.704;2023-11-25T13:58:05;7.57;;;1.98;;
51718;SDS011;37795;53.236;5.704;2023-11-25T14:00:32;10.23;;;2.53;;
51718;SDS011;37795;53.236;5.704;2023-11-25T14:02:58;4.57;;;2.03;;
51718;SDS011;37795;53.236;5.704;2023-11-25T14:05:25;5.97;;;1.98;;
51718;SDS011;37795;53.236;5.704;2023-11-25T14:07:51;6.93;;;2.10;;
51718;SDS011;37795;53.236;5.704;2023-11-25T14:10:16;8.40;;;2.60;;
51718;SDS011;37795;53.236;5.704;2023-11-25T14:12:44;4.77;;;1.90;;
51718;SDS011;37795;53.236;5.704;2023-11-25T14:15:10;6.27;;;2.20;;
51718;SDS011;37795;53.236;5.704;2023-11-25T14:17:37;7.13;;;2.15;;
51718;SDS011;37795;53.236;5.704;2023-11-25T14:20:09;5.20;;;2.13;;
51718;SDS011;37795;53.236;5.704;2023-11-25T14:22:44;14.15;;;2.33;;
51718;SDS011;37795;53.236;5.704;2023-11-25T14:25:15;6.07;;;1.95;;
51718;SDS011;37795;53.236;5.704;2023-11-25T14:27:43;4.35;;;2.03;;
51718;SDS011;37795;53.236;5.704;2023-11-25T14:30:13;7.30;;;2.75;;
51718;SDS011;37795;53.236;5.704;2023-11-25T14:32:43;3.70;;;2.08;;
51718;SDS011;37795;53.236;5.704;2023-11-25T14:35:13;4.50;;;2.28;;
51718;SDS011;37795;53.236;5.704;2023-11-25T14:37:40;7.10;;;2.15;;
51718;SDS011;37795;53.236;5.704;2023-11-25T14:40:06;5.65;;;2.25;;
51718;SDS011;37795;53.236;5.704;2023-11-25T14:42:35;2.63;;;1.77;;
51718;SDS011;37795;53.236;5.704;2023-11-25T14:45:09;3.20;;;2.03;;
51718;SDS011;37795;53.236;5.704;2023-11-25T14:47:35;2.72;;;1.70;;
51718;SDS011;37795;53.236;5.704;2023-11-25T14:50:02;3.97;;;2.00;;
51718;SDS011;37795;53.236;5.704;2023-11-25T14:52:29;4.00;;;1.60;;
51718;SDS011;37795;53.236;5.704;2023-11-25T14:54:55;4.63;;;2.33;;
51718;SDS011;37795;53.236;5.704;2023-11-25T14:57:21;4.05;;;1.52;;
51718;SDS011;37795;53.236;5.704;2023-11-25T14:59:47;2.77;;;1.37;;
51718;SDS011;37795;53.236;5.704;2023-11-25T15:02:14;2.08;;;1.50;;
51718;SDS011;37795;53.236;5.704;2023-11-25T15:04:40;3.55;;;1.92;;
51718;SDS011;37795;53.236;5.704;2023-11-25T15:07:06;2.67;;;1.48;;
51718;SDS011;37795;53.236;5.704;2023-11-25T15:09:32;2.33;;;1.50;;